createdAt,value
2023-04-12T00:11:00.818Z,99.90
2023-04-12T00:26:05.662Z,99.90
2023-04-12T00:41:10.114Z,99.90
2023-04-12T00:56:14.695Z,99.90
2023-04-12T01:11:24.562Z,99.90
2023-04-12T01:26:36.110Z,99.90
2023-04-12T01:41:43.251Z,99.90
2023-04-12T01:56:51.274Z,99.90
2023-04-12T02:11:57.222Z,99.90
2023-04-12T02:27:02.550Z,99.90
2023-04-12T02:42:08.640Z,99.90
2023-04-12T02:57:16.139Z,99.90
2023-04-12T03:12:23.857Z,99.90
2023-04-12T03:27:38.776Z,99.90
2023-04-12T03:42:43.311Z,99.90
2023-04-12T03:57:50.157Z,99.90
2023-04-12T04:12:56.194Z,99.90
2023-04-12T04:28:02.692Z,99.90
2023-04-12T04:43:09.813Z,99.90
2023-04-12T04:58:18.609Z,99.90
2023-04-12T05:13:23.597Z,99.90
2023-04-12T05:28:28.310Z,99.90
2023-04-12T05:43:33.851Z,99.90
2023-04-12T05:58:39.564Z,99.90
2023-04-12T06:13:44.123Z,99.90
2023-04-12T06:28:49.042Z,99.90
2023-04-12T06:43:54.274Z,99.90
2023-04-12T06:58:59.011Z,99.90
2023-04-12T07:14:03.743Z,99.90
2023-04-12T07:29:08.140Z,99.90
2023-04-12T07:44:12.673Z,99.90
2023-04-12T07:59:17.066Z,99.90
2023-04-12T08:14:21.520Z,99.90
2023-04-12T08:29:26.291Z,99.90
2023-04-12T08:44:37.649Z,99.90
2023-04-12T08:59:44.690Z,99.90
2023-04-12T09:14:49.284Z,99.90
2023-04-12T09:30:07.426Z,99.90
2023-04-12T09:45:23.973Z,99.90
2023-04-12T10:00:29.288Z,99.90
2023-04-12T10:15:35.604Z,99.90
2023-04-12T10:30:44.214Z,99.90
2023-04-12T10:45:49.440Z,99.90
2023-04-12T11:01:12.827Z,99.90
2023-04-12T11:16:17.422Z,99.30
2023-04-12T11:31:23.190Z,98.00
2023-04-12T11:46:34.232Z,98.60
2023-04-12T12:01:39.281Z,99.00
2023-04-12T12:16:43.740Z,99.80
2023-04-12T12:31:49.165Z,98.20
2023-04-12T12:46:58.628Z,93.30
2023-04-12T13:02:08.222Z,93.00
2023-04-12T13:17:12.661Z,92.90
2023-04-12T13:32:18.517Z,93.90
2023-04-12T13:47:23.000Z,90.80
2023-04-12T14:02:29.327Z,84.10
2023-04-12T14:17:36.004Z,86.70
2023-04-12T14:32:41.093Z,90.20
2023-04-12T14:47:45.776Z,76.30
2023-04-12T15:02:50.643Z,83.90
2023-04-12T15:17:55.175Z,70.40
2023-04-12T15:32:59.758Z,62.50
2023-04-12T15:48:04.410Z,57.00
2023-04-12T16:03:09.133Z,55.60
2023-04-12T16:18:14.221Z,53.60
2023-04-12T16:33:19.016Z,52.00
2023-04-12T16:48:23.518Z,61.40
2023-04-12T17:03:28.099Z,71.60
2023-04-12T17:18:34.608Z,99.90
2023-04-12T17:33:39.001Z,99.90
2023-04-12T17:48:43.219Z,97.90
2023-04-12T18:03:48.022Z,95.80
2023-04-12T18:18:54.817Z,95.20
2023-04-12T18:33:59.473Z,95.60
2023-04-12T18:49:05.453Z,95.20
2023-04-12T19:04:10.179Z,95.90
2023-04-12T19:19:15.458Z,95.60
2023-04-12T19:34:20.061Z,94.00
2023-04-12T19:49:26.715Z,95.00
2023-04-12T20:04:31.843Z,95.70
2023-04-12T20:19:37.974Z,96.80
2023-04-12T20:34:47.034Z,97.40
2023-04-12T20:49:52.247Z,97.20
2023-04-12T21:04:58.176Z,97.40
2023-04-12T21:20:13.555Z,97.90
2023-04-12T21:35:18.392Z,98.80
2023-04-12T21:50:22.999Z,99.00
2023-04-12T22:05:27.951Z,99.20
2023-04-12T22:20:33.725Z,98.60
2023-04-12T22:35:38.140Z,99.50
2023-04-12T22:50:42.794Z,99.80
2023-04-12T23:05:47.550Z,99.90
2023-04-12T23:20:52.521Z,99.90
2023-04-12T23:35:57.056Z,99.90
2023-04-12T23:51:01.604Z,99.90
